Terminal Aerodrome Forecast
Issued by NWS

Home | Current Version | Previous Version | Text Only | Print | Product List | Glossary Off
Versions: 1 2 3 4 5 6 7 8 9 10 11 12 13 14 15

000
FTUS43 KMPX 282339
TAFRNH
TAF
KRNH 282339Z 2900/2924 15005KT 4SM BR OVC012
      TEMPO 2902/2906 VRB03KT 1 1/2SM -FZDZSN OVC008
     FM290600 31009KT 4SM -SHSN BR OVC006
     FM291000 31014G24KT P6SM OVC010
     FM291600 32018G26KT P6SM OVC018
     FM292200 32015G22KT P6SM SCT020=

USA.gov is the U.S. government's official web portal to all federal, state and local government web resources and services.